sensor_id;sensor_type;location;lat;lon;timestamp;pressure;altitude;pressure_sealevel;temperature
78225;BMP280;67498;53.650;10.090;2024-03-08T00:02:36;102330.53;;;1.14
78225;BMP280;67498;53.650;10.090;2024-03-08T00:05:03;102335.31;;;1.20
78225;BMP280;67498;53.650;10.090;2024-03-08T00:07:28;102342.06;;;1.16
78225;BMP280;67498;53.650;10.090;2024-03-08T00:09:53;102342.56;;;1.18
78225;BMP280;67498;53.650;10.090;2024-03-08T00:12:18;102337.19;;;1.15
78225;BMP280;67498;53.650;10.090;2024-03-08T00:14:44;102339.22;;;1.18
78225;BMP280;67498;53.650;10.090;2024-03-08T00:17:10;102326.44;;;1.13
78225;BMP280;67498;53.650;10.090;2024-03-08T00:19:35;102327.97;;;1.14
78225;BMP280;67498;53.650;10.090;2024-03-08T00:22:00;102323.66;;;1.09
78225;BMP280;67498;53.650;10.090;2024-03-08T00:24:25;102323.66;;;1.09
78225;BMP280;67498;53.650;10.090;2024-03-08T00:26:50;102325.19;;;1.10
78225;BMP280;67498;53.650;10.090;2024-03-08T00:29:16;102322.44;;;1.06
78225;BMP280;67498;53.650;10.090;2024-03-08T00:31:41;102325.25;;;1.05
78225;BMP280;67498;53.650;10.090;2024-03-08T00:34:06;102320.97;;;1.00
78225;BMP280;67498;53.650;10.090;2024-03-08T00:36:31;102321.53;;;0.97
78225;BMP280;67498;53.650;10.090;2024-03-08T00:38:57;102329.25;;;0.97
78225;BMP280;67498;53.650;10.090;2024-03-08T00:41:22;102309.81;;;0.91
78225;BMP280;67498;53.650;10.090;2024-03-08T00:43:53;102317.53;;;0.91
78225;BMP280;67498;53.650;10.090;2024-03-08T00:46:18;102319.13;;;0.87
78225;BMP280;67498;53.650;10.090;2024-03-08T00:48:44;102315.03;;;0.86
78225;BMP280;67498;53.650;10.090;2024-03-08T00:51:09;102316.66;;;0.82
78225;BMP280;67498;53.650;10.090;2024-03-08T00:53:34;102317.19;;;0.79
78225;BMP280;67498;53.650;10.090;2024-03-08T00:56:00;102313.19;;;0.73
78225;BMP280;67498;53.650;10.090;2024-03-08T00:58:25;102312.97;;;0.69
78225;BMP280;67498;53.650;10.090;2024-03-08T01:00:50;102310.19;;;0.66
78225;BMP280;67498;53.650;10.090;2024-03-08T01:03:15;102309.44;;;0.65
78225;BMP280;67498;53.650;10.090;2024-03-08T01:05:41;102306.66;;;0.61
78225;BMP280;67498;53.650;10.090;2024-03-08T01:08:06;102300.53;;;0.57
78225;BMP280;67498;53.650;10.090;2024-03-08T01:10:32;102300.53;;;0.57
78225;BMP280;67498;53.650;10.090;2024-03-08T01:12:58;102302.16;;;0.53
78225;BMP280;67498;53.650;10.090;2024-03-08T01:15:24;102296.53;;;0.51
78225;BMP280;67498;53.650;10.090;2024-03-08T01:17:50;102293.75;;;0.48
78225;BMP280;67498;53.650;10.090;2024-03-08T01:20:15;102288.59;;;0.48
78225;BMP280;67498;53.650;10.090;2024-03-08T01:22:40;102282.22;;;0.45
78225;BMP280;67498;53.650;10.090;2024-03-08T01:25:06;102284.31;;;0.43
78225;BMP280;67498;53.650;10.090;2024-03-08T01:27:31;102272.31;;;0.38
78225;BMP280;67498;53.650;10.090;2024-03-08T01:29:57;102267.72;;;0.35
78225;BMP280;67498;53.650;10.090;2024-03-08T01:32:24;102261.94;;;0.30
78225;BMP280;67498;53.650;10.090;2024-03-08T01:34:49;102264.66;;;0.33
78225;BMP280;67498;53.650;10.090;2024-03-08T01:37:14;102261.66;;;0.31
78225;BMP280;67498;53.650;10.090;2024-03-08T01:39:40;102258.13;;;0.27
78225;BMP280;67498;53.650;10.090;2024-03-08T01:42:05;102250.19;;;0.24
78225;BMP280;67498;53.650;10.090;2024-03-08T01:44:30;102257.13;;;0.23
78225;BMP280;67498;53.650;10.090;2024-03-08T01:46:56;102249.69;;;0.21
78225;BMP280;67498;53.650;10.090;2024-03-08T01:49:22;102239.50;;;0.16
78225;BMP280;67498;53.650;10.090;2024-03-08T01:51:48;102230.38;;;0.10
78225;BMP280;67498;53.650;10.090;2024-03-08T01:54:16;102223.19;;;0.07
78225;BMP280;67498;53.650;10.090;2024-03-08T01:56:42;102226.25;;;0.09
78225;BMP280;67498;53.650;10.090;2024-03-08T01:59:07;102229.88;;;0.08
78225;BMP280;67498;53.650;10.090;2024-03-08T02:01:33;102225.75;;;0.07
78225;BMP280;67498;53.650;10.090;2024-03-08T02:03:58;102227.88;;;0.05
78225;BMP280;67498;53.650;10.090;2024-03-08T02:06:24;102220.25;;;0.00
78225;BMP280;67498;53.650;10.090;2024-03-08T02:08:49;102222.31;;;-0.02
78225;BMP280;67498;53.650;10.090;2024-03-08T02:11:14;102224.41;;;-0.04
78225;BMP280;67498;53.650;10.090;2024-03-08T02:13:41;102224.41;;;-0.04
78225;BMP280;67498;53.650;10.090;2024-03-08T02:16:06;102217.78;;;-0.10
78225;BMP280;67498;53.650;10.090;2024-03-08T02:18:33;102217.78;;;-0.10
78225;BMP280;67498;53.650;10.090;2024-03-08T02:21:01;102217.59;;;-0.14
78225;BMP280;67498;53.650;10.090;2024-03-08T02:23:27;102219.41;;;-0.14
78225;BMP280;67498;53.650;10.090;2024-03-08T02:25:53;102213.00;;;-0.17
78225;BMP280;67498;53.650;10.090;2024-03-08T02:28:19;102214.78;;;-0.17
78225;BMP280;67498;53.650;10.090;2024-03-08T02:30:51;102209.72;;;-0.23
78225;BMP280;67498;53.650;10.090;2024-03-08T02:33:19;102210.22;;;-0.20
78225;BMP280;67498;53.650;10.090;2024-03-08T02:35:45;102204.13;;;-0.25
78225;BMP280;67498;53.650;10.090;2024-03-08T02:38:17;102205.66;;;-0.24
78225;BMP280;67498;53.650;10.090;2024-03-08T02:40:44;102207.72;;;-0.26
78225;BMP280;67498;53.650;10.090;2024-03-08T02:43:10;102204.66;;;-0.28
78225;BMP280;67498;53.650;10.090;2024-03-08T02:45:36;102198.81;;;-0.33
78225;BMP280;67498;53.650;10.090;2024-03-08T02:48:01;102203.16;;;-0.34
78225;BMP280;67498;53.650;10.090;2024-03-08T02:50:26;102208.81;;;-0.32
78225;BMP280;67498;53.650;10.090;2024-03-08T02:52:51;102211.91;;;-0.35
78225;BMP280;67498;53.650;10.090;2024-03-08T02:55:17;102204.00;;;-0.38
78225;BMP280;67498;53.650;10.090;2024-03-08T02:57:43;102205.81;;;-0.39
78225;BMP280;67498;53.650;10.090;2024-03-08T03:00:13;102201.72;;;-0.40
78225;BMP280;67498;53.650;10.090;2024-03-08T03:02:38;102200.47;;;-0.43
78225;BMP280;67498;53.650;10.090;2024-03-08T03:05:04;102194.59;;;-0.43
78225;BMP280;67498;53.650;10.090;2024-03-08T03:07:32;102186.41;;;-0.45
78225;BMP280;67498;53.650;10.090;2024-03-08T03:09:58;102179.03;;;-0.52
78225;BMP280;67498;53.650;10.090;2024-03-08T03:12:24;102177.44;;;-0.48
78225;BMP280;67498;53.650;10.090;2024-03-08T03:14:49;102177.72;;;-0.49
78225;BMP280;67498;53.650;10.090;2024-03-08T03:17:14;102172.84;;;-0.51
78225;BMP280;67498;53.650;10.090;2024-03-08T03:19:42;102174.09;;;-0.48
78225;BMP280;67498;53.650;10.090;2024-03-08T03:22:08;102176.41;;;-0.47
78225;BMP280;67498;53.650;10.090;2024-03-08T03:24:34;102173.63;;;-0.50
78225;BMP280;67498;53.650;10.090;2024-03-08T03:27:03;102180.00;;;-0.48
78225;BMP280;67498;53.650;10.090;2024-03-08T03:29:35;102172.84;;;-0.51
78225;BMP280;67498;53.650;10.090;2024-03-08T03:32:01;102181.03;;;-0.49
78225;BMP280;67498;53.650;10.090;2024-03-08T03:34:27;102179.28;;;-0.53
78225;BMP280;67498;53.650;10.090;2024-03-08T03:36:54;102174.47;;;-0.55
78225;BMP280;67498;53.650;10.090;2024-03-08T03:39:20;102183.09;;;-0.51
78225;BMP280;67498;53.650;10.090;2024-03-08T03:41:47;102170.56;;;-0.52
78225;BMP280;67498;53.650;10.090;2024-03-08T03:44:17;102172.34;;;-0.53
78225;BMP280;67498;53.650;10.090;2024-03-08T03:46:43;102175.41;;;-0.51
78225;BMP280;67498;53.650;10.090;2024-03-08T03:49:09;102172.09;;;-0.51
78225;BMP280;67498;53.650;10.090;2024-03-08T03:51:34;102174.16;;;-0.53
78225;BMP280;67498;53.650;10.090;2024-03-08T03:53:59;102167.53;;;-0.54
78225;BMP280;67498;53.650;10.090;2024-03-08T03:56:25;102169.78;;;-0.53
78225;BMP280;67498;53.650;10.090;2024-03-08T03:58:51;102173.66;;;-0.55
78225;BMP280;67498;53.650;10.090;2024-03-08T04:01:17;102170.09;;;-0.54
78225;BMP280;67498;53.650;10.090;2024-03-08T04:03:42;102171.91;;;-0.55
78225;BMP280;67498;53.650;10.090;2024-03-08T04:06:08;102169.84;;;-0.58
78225;BMP280;67498;53.650;10.090;2024-03-08T04:08:33;102173.41;;;-0.54
78225;BMP280;67498;53.650;10.090;2024-03-08T04:11:00;102163.41;;;-0.55
78225;BMP280;67498;53.650;10.090;2024-03-08T04:13:25;102160.38;;;-0.57
78225;BMP280;67498;53.650;10.090;2024-03-08T04:15:51;102161.84;;;-0.51
78225;BMP280;67498;53.650;10.090;2024-03-08T04:18:16;102170.28;;;-0.51
78225;BMP280;67498;53.650;10.090;2024-03-08T04:20:43;102163.63;;;-0.52
78225;BMP280;67498;53.650;10.090;2024-03-08T04:23:08;102161.06;;;-0.52
78225;BMP280;67498;53.650;10.090;2024-03-08T04:25:33;102173.34;;;-0.49
78225;BMP280;67498;53.650;10.090;2024-03-08T04:27:59;102173.63;;;-0.50
78225;BMP280;67498;53.650;10.090;2024-03-08T04:30:24;102168.78;;;-0.52
78225;BMP280;67498;53.650;10.090;2024-03-08T04:32:50;102170.28;;;-0.51
78225;BMP280;67498;53.650;10.090;2024-03-08T04:35:15;102162.09;;;-0.53
78225;BMP280;67498;53.650;10.090;2024-03-08T04:37:40;102162.31;;;-0.49
78225;BMP280;67498;53.650;10.090;2024-03-08T04:40:06;102162.59;;;-0.51
78225;BMP280;67498;53.650;10.090;2024-03-08T04:42:32;102152.63;;;-0.52
78225;BMP280;67498;53.650;10.090;2024-03-08T04:45:00;102158.78;;;-0.53
78225;BMP280;67498;53.650;10.090;2024-03-08T04:47:25;102149.56;;;-0.54
78225;BMP280;67498;53.650;10.090;2024-03-08T04:49:51;102148.81;;;-0.55
78225;BMP280;67498;53.650;10.090;2024-03-08T04:52:16;102152.63;;;-0.52
78225;BMP280;67498;53.650;10.090;2024-03-08T04:54:41;102141.59;;;-0.53
78225;BMP280;67498;53.650;10.090;2024-03-08T04:57:07;102143.94;;;-0.56
78225;BMP280;67498;53.650;10.090;2024-03-08T04:59:32;102140.91;;;-0.58
78225;BMP280;67498;53.650;10.090;2024-03-08T05:01:57;102141.66;;;-0.58
78225;BMP280;67498;53.650;10.090;2024-03-08T05:04:23;102133.47;;;-0.60
78225;BMP280;67498;53.650;10.090;2024-03-08T05:06:48;102140.91;;;-0.58
78225;BMP280;67498;53.650;10.090;2024-03-08T05:09:14;102134.50;;;-0.61
78225;BMP280;67498;53.650;10.090;2024-03-08T05:11:43;102136.03;;;-0.60
78225;BMP280;67498;53.650;10.090;2024-03-08T05:14:12;102136.81;;;-0.59
78225;BMP280;67498;53.650;10.090;2024-03-08T05:16:44;102138.41;;;-0.64
78225;BMP280;67498;53.650;10.090;2024-03-08T05:19:17;102144.00;;;-0.61
78225;BMP280;67498;53.650;10.090;2024-03-08T05:21:46;102136.31;;;-0.61
78225;BMP280;67498;53.650;10.090;2024-03-08T05:24:11;102135.84;;;-0.64
78225;BMP280;67498;53.650;10.090;2024-03-08T05:26:37;102139.44;;;-0.65
78225;BMP280;67498;53.650;10.090;2024-03-08T05:29:05;102133.53;;;-0.65
78225;BMP280;67498;53.650;10.090;2024-03-08T05:31:37;102124.88;;;-0.69
78225;BMP280;67498;53.650;10.090;2024-03-08T05:34:03;102131.53;;;-0.68
78225;BMP280;67498;53.650;10.090;2024-03-08T05:36:29;102127.72;;;-0.71
78225;BMP280;67498;53.650;10.090;2024-03-08T05:38:54;102128.75;;;-0.72
78225;BMP280;67498;53.650;10.090;2024-03-08T05:41:19;102131.78;;;-0.70
78225;BMP280;67498;53.650;10.090;2024-03-08T05:43:44;102123.34;;;-0.70
78225;BMP280;67498;53.650;10.090;2024-03-08T05:46:10;102123.63;;;-0.72
78225;BMP280;67498;53.650;10.090;2024-03-08T05:48:37;102118.22;;;-0.70
78225;BMP280;67498;53.650;10.090;2024-03-08T05:51:02;102130.47;;;-0.67
78225;BMP280;67498;53.650;10.090;2024-03-08T05:53:28;102127.16;;;-0.68
78225;BMP280;67498;53.650;10.090;2024-03-08T05:55:57;102123.56;;;-0.67
78225;BMP280;67498;53.650;10.090;2024-03-08T05:58:22;102128.13;;;-0.64
78225;BMP280;67498;53.650;10.090;2024-03-08T06:00:47;102128.13;;;-0.64
78225;BMP280;67498;53.650;10.090;2024-03-08T06:03:13;102126.63;;;-0.65
78225;BMP280;67498;53.650;10.090;2024-03-08T06:05:38;102131.47;;;-0.63
78225;BMP280;67498;53.650;10.090;2024-03-08T06:08:07;102129.94;;;-0.64
78225;BMP280;67498;53.650;10.090;2024-03-08T06:10:32;102124.59;;;-0.68
78225;BMP280;67498;53.650;10.090;2024-03-08T06:12:58;102125.56;;;-0.64
78225;BMP280;67498;53.650;10.090;2024-03-08T06:15:23;102129.94;;;-0.64
78225;BMP280;67498;53.650;10.090;2024-03-08T06:17:48;102128.13;;;-0.64
78225;BMP280;67498;53.650;10.090;2024-03-08T06:20:18;102130.69;;;-0.64
78225;BMP280;67498;53.650;10.090;2024-03-08T06:22:43;102129.13;;;-0.59
78225;BMP280;67498;53.650;10.090;2024-03-08T06:25:12;102124.00;;;-0.59
78225;BMP280;67498;53.650;10.090;2024-03-08T06:27:40;102136.75;;;-0.54
78225;BMP280;67498;53.650;10.090;2024-03-08T06:30:06;102129.06;;;-0.54
78225;BMP280;67498;53.650;10.090;2024-03-08T06:32:31;102128.00;;;-0.53
78225;BMP280;67498;53.650;10.090;2024-03-08T06:35:01;102124.91;;;-0.50
78225;BMP280;67498;53.650;10.090;2024-03-08T06:37:26;102119.78;;;-0.50
78225;BMP280;67498;53.650;10.090;2024-03-08T06:39:51;102105.41;;;-0.51
78225;BMP280;67498;53.650;10.090;2024-03-08T06:42:17;102118.88;;;-0.40
78225;BMP280;67498;53.650;10.090;2024-03-08T06:44:42;102123.22;;;-0.41
78225;BMP280;67498;53.650;10.090;2024-03-08T06:47:14;102119.50;;;-0.30
78225;BMP280;67498;53.650;10.090;2024-03-08T06:49:40;102123.88;;;-0.30
78225;BMP280;67498;53.650;10.090;2024-03-08T06:52:06;102123.25;;;-0.22
78225;BMP280;67498;53.650;10.090;2024-03-08T06:54:32;102114.78;;;-0.23
78225;BMP280;67498;53.650;10.090;2024-03-08T06:56:57;102109.66;;;-0.23
78225;BMP280;67498;53.650;10.090;2024-03-08T06:59:22;102120.06;;;-0.14
78225;BMP280;67498;53.650;10.090;2024-03-08T07:01:48;102121.25;;;-0.06
78225;BMP280;67498;53.650;10.090;2024-03-08T07:04:13;102113.53;;;-0.06
78225;BMP280;67498;53.650;10.090;2024-03-08T07:06:38;102116.78;;;-0.01
78225;BMP280;67498;53.650;10.090;2024-03-08T07:09:05;102112.53;;;0.09
78225;BMP280;67498;53.650;10.090;2024-03-08T07:11:31;102120.16;;;0.14
78225;BMP280;67498;53.650;10.090;2024-03-08T07:13:56;102107.31;;;0.14
78225;BMP280;67498;53.650;10.090;2024-03-08T07:16:22;102113.59;;;0.21
78225;BMP280;67498;53.650;10.090;2024-03-08T07:18:49;102117.16;;;0.26
78225;BMP280;67498;53.650;10.090;2024-03-08T07:21:17;102126.47;;;0.35
78225;BMP280;67498;53.650;10.090;2024-03-08T07:23:43;102117.91;;;0.40
78225;BMP280;67498;53.650;10.090;2024-03-08T07:26:19;102109.84;;;0.47
78225;BMP280;67498;53.650;10.090;2024-03-08T07:28:45;102115.28;;;0.59
78225;BMP280;67498;53.650;10.090;2024-03-08T07:31:10;102113.09;;;0.66
78225;BMP280;67498;53.650;10.090;2024-03-08T07:33:50;102119.84;;;0.76
78225;BMP280;67498;53.650;10.090;2024-03-08T07:36:16;102124.72;;;0.91
78225;BMP280;67498;53.650;10.090;2024-03-08T07:38:41;102114.25;;;1.01
78225;BMP280;67498;53.650;10.090;2024-03-08T07:41:06;102120.00;;;1.35
78225;BMP280;67498;53.650;10.090;2024-03-08T07:43:32;102125.03;;;1.62
78225;BMP280;67498;53.650;10.090;2024-03-08T07:45:58;102115.94;;;1.79
78225;BMP280;67498;53.650;10.090;2024-03-08T07:48:23;102117.25;;;1.99
78225;BMP280;67498;53.650;10.090;2024-03-08T07:50:48;102116.97;;;2.23
78225;BMP280;67498;53.650;10.090;2024-03-08T07:53:15;102117.03;;;2.49
78225;BMP280;67498;53.650;10.090;2024-03-08T07:55:40;102121.63;;;2.61
78225;BMP280;67498;53.650;10.090;2024-03-08T07:58:07;102113.44;;;2.58
78225;BMP280;67498;53.650;10.090;2024-03-08T08:00:35;102110.22;;;2.53
78225;BMP280;67498;53.650;10.090;2024-03-08T08:03:01;102105.38;;;2.51
78225;BMP280;67498;53.650;10.090;2024-03-08T08:05:27;102110.41;;;2.65
78225;BMP280;67498;53.650;10.090;2024-03-08T08:07:52;102108.78;;;2.78
78225;BMP280;67498;53.650;10.090;2024-03-08T08:10:18;102119.88;;;2.87
78225;BMP280;67498;53.650;10.090;2024-03-08T08:12:49;102120.34;;;3.07
78225;BMP280;67498;53.650;10.090;2024-03-08T08:15:15;102117.03;;;3.41
78225;BMP280;67498;53.650;10.090;2024-03-08T08:17:44;102113.31;;;3.77
78225;BMP280;67498;53.650;10.090;2024-03-08T08:20:10;102117.50;;;4.07
78225;BMP280;67498;53.650;10.090;2024-03-08T08:22:37;102114.38;;;4.23
78225;BMP280;67498;53.650;10.090;2024-03-08T08:25:03;102104.19;;;4.26
78225;BMP280;67498;53.650;10.090;2024-03-08T08:27:29;102114.19;;;4.37
78225;BMP280;67498;53.650;10.090;2024-03-08T08:29:54;102107.88;;;4.46
78225;BMP280;67498;53.650;10.090;2024-03-08T08:32:19;102105.19;;;4.64
78225;BMP280;67498;53.650;10.090;2024-03-08T08:34:45;102107.75;;;4.72
78225;BMP280;67498;53.650;10.090;2024-03-08T08:37:11;102103.97;;;4.91
78225;BMP280;67498;53.650;10.090;2024-03-08T08:39:37;102110.88;;;5.20
78225;BMP280;67498;53.650;10.090;2024-03-08T08:42:03;102112.25;;;5.51
78225;BMP280;67498;53.650;10.090;2024-03-08T08:44:28;102095.56;;;5.85
78225;BMP280;67498;53.650;10.090;2024-03-08T08:46:54;102107.03;;;6.21
78225;BMP280;67498;53.650;10.090;2024-03-08T08:49:19;102100.00;;;6.21
78225;BMP280;67498;53.650;10.090;2024-03-08T08:51:51;102092.31;;;6.25
78225;BMP280;67498;53.650;10.090;2024-03-08T08:54:17;102098.13;;;6.34
78225;BMP280;67498;53.650;10.090;2024-03-08T08:56:43;102101.25;;;6.52
78225;BMP280;67498;53.650;10.090;2024-03-08T08:59:12;102091.50;;;6.61
78225;BMP280;67498;53.650;10.090;2024-03-08T09:01:44;102092.88;;;6.71
78225;BMP280;67498;53.650;10.090;2024-03-08T09:04:12;102095.56;;;6.74
78225;BMP280;67498;53.650;10.090;2024-03-08T09:06:37;102093.38;;;6.76
78225;BMP280;67498;53.650;10.090;2024-03-08T09:09:02;102079.75;;;6.79
78225;BMP280;67498;53.650;10.090;2024-03-08T09:11:29;102091.66;;;6.80
78225;BMP280;67498;53.650;10.090;2024-03-08T09:13:55;102086.44;;;6.80
78225;BMP280;67498;53.650;10.090;2024-03-08T09:16:20;102077.09;;;6.92
78225;BMP280;67498;53.650;10.090;2024-03-08T09:18:45;102072.13;;;6.99
78225;BMP280;67498;53.650;10.090;2024-03-08T09:21:10;102079.19;;;7.14
78225;BMP280;67498;53.650;10.090;2024-03-08T09:23:36;102074.56;;;7.23
78225;BMP280;67498;53.650;10.090;2024-03-08T09:26:01;102060.22;;;7.29
78225;BMP280;67498;53.650;10.090;2024-03-08T09:28:28;102062.00;;;7.25
78225;BMP280;67498;53.650;10.090;2024-03-08T09:30:54;102060.88;;;7.26
78225;BMP280;67498;53.650;10.090;2024-03-08T09:33:20;102056.38;;;7.23
78225;BMP280;67498;53.650;10.090;2024-03-08T09:35:46;102049.47;;;7.15
78225;BMP280;67498;53.650;10.090;2024-03-08T09:38:12;102039.28;;;7.22
78225;BMP280;67498;53.650;10.090;2024-03-08T09:40:38;102038.53;;;7.38
78225;BMP280;67498;53.650;10.090;2024-03-08T09:43:05;102033.81;;;7.43
78225;BMP280;67498;53.650;10.090;2024-03-08T09:45:32;102038.84;;;7.52
78225;BMP280;67498;53.650;10.090;2024-03-08T09:48:01;102026.25;;;7.70
78225;BMP280;67498;53.650;10.090;2024-03-08T09:50:26;102028.66;;;7.79
78225;BMP280;67498;53.650;10.090;2024-03-08T09:52:53;102026.63;;;7.88
78225;BMP280;67498;53.650;10.090;2024-03-08T09:55:22;102027.06;;;8.09
78225;BMP280;67498;53.650;10.090;2024-03-08T09:57:48;102027.13;;;8.32
78225;BMP280;67498;53.650;10.090;2024-03-08T10:00:33;102021.66;;;8.57
78225;BMP280;67498;53.650;10.090;2024-03-08T10:03:02;102015.53;;;8.69
78225;BMP280;67498;53.650;10.090;2024-03-08T10:05:28;102008.63;;;8.80
78225;BMP280;67498;53.650;10.090;2024-03-08T10:07:54;102006.91;;;8.87
78225;BMP280;67498;53.650;10.090;2024-03-08T10:10:19;102004.88;;;8.77
78225;BMP280;67498;53.650;10.090;2024-03-08T10:12:45;101999.66;;;8.54
78225;BMP280;67498;53.650;10.090;2024-03-08T10:15:11;102001.94;;;8.36
78225;BMP280;67498;53.650;10.090;2024-03-08T10:17:37;101976.66;;;8.37
78225;BMP280;67498;53.650;10.090;2024-03-08T10:20:14;101985.47;;;8.52
78225;BMP280;67498;53.650;10.090;2024-03-08T10:22:40;101981.81;;;8.76
78225;BMP280;67498;53.650;10.090;2024-03-08T10:25:09;101984.63;;;8.90
78225;BMP280;67498;53.650;10.090;2024-03-08T10:27:35;101973.16;;;8.95
78225;BMP280;67498;53.650;10.090;2024-03-08T10:30:01;101971.38;;;8.99
78225;BMP280;67498;53.650;10.090;2024-03-08T10:32:26;101977.50;;;9.13
78225;BMP280;67498;53.650;10.090;2024-03-08T10:34:51;101970.31;;;9.03
78225;BMP280;67498;53.650;10.090;2024-03-08T10:37:21;101953.28;;;9.09
78225;BMP280;67498;53.650;10.090;2024-03-08T10:39:58;101960.22;;;9.28
78225;BMP280;67498;53.650;10.090;2024-03-08T10:42:28;101955.63;;;9.45
78225;BMP280;67498;53.650;10.090;2024-03-08T10:45:13;101944.09;;;9.46
78225;BMP280;67498;53.650;10.090;2024-03-08T10:47:41;101943.91;;;9.62
78225;BMP280;67498;53.650;10.090;2024-03-08T10:50:17;101944.50;;;9.81
78225;BMP280;67498;53.650;10.090;2024-03-08T10:52:51;101939.75;;;9.91
78225;BMP280;67498;53.650;10.090;2024-03-08T10:55:20;101924.16;;;9.98
78225;BMP280;67498;53.650;10.090;2024-03-08T10:57:46;101941.25;;;9.92
78225;BMP280;67498;53.650;10.090;2024-03-08T11:00:16;101927.38;;;9.84
78225;BMP280;67498;53.650;10.090;2024-03-08T11:02:45;101928.44;;;9.79
78225;BMP280;67498;53.650;10.090;2024-03-08T11:05:11;101934.72;;;9.71
78225;BMP280;67498;53.650;10.090;2024-03-08T11:07:42;101929.03;;;9.66
78225;BMP280;67498;53.650;10.090;2024-03-08T11:10:19;101916.94;;;9.50
78225;BMP280;67498;53.650;10.090;2024-03-08T11:12:44;101913.72;;;9.30
78225;BMP280;67498;53.650;10.090;2024-03-08T11:15:12;101907.84;;;9.37
78225;BMP280;67498;53.650;10.090;2024-03-08T11:20:09;101905.78;;;9.50
78225;BMP280;67498;53.650;10.090;2024-03-08T11:22:41;101904.53;;;9.40
78225;BMP280;67498;53.650;10.090;2024-03-08T11:25:30;101895.69;;;9.48
78225;BMP280;67498;53.650;10.090;2024-03-08T11:28:10;101893.38;;;9.77
78225;BMP280;67498;53.650;10.090;2024-03-08T11:30:41;101886.84;;;9.90
78225;BMP280;67498;53.650;10.090;2024-03-08T11:33:11;101885.28;;;9.86
78225;BMP280;67498;53.650;10.090;2024-03-08T11:35:38;101854.84;;;9.59
78225;BMP280;67498;53.650;10.090;2024-03-08T11:38:03;101864.28;;;9.75
78225;BMP280;67498;53.650;10.090;2024-03-08T11:40:29;101860.63;;;9.79
78225;BMP280;67498;53.650;10.090;2024-03-08T11:42:54;101867.13;;;9.96
78225;BMP280;67498;53.650;10.090;2024-03-08T11:45:20;101854.13;;;10.00
78225;BMP280;67498;53.650;10.090;2024-03-08T11:47:46;101854.56;;;10.09
78225;BMP280;67498;53.650;10.090;2024-03-08T11:50:12;101864.72;;;10.21
78225;BMP280;67498;53.650;10.090;2024-03-08T11:52:38;101855.75;;;10.19
78225;BMP280;67498;53.650;10.090;2024-03-08T11:55:04;101851.53;;;10.00
78225;BMP280;67498;53.650;10.090;2024-03-08T11:57:31;101851.81;;;9.91
78225;BMP280;67498;53.650;10.090;2024-03-08T11:59:57;101841.78;;;9.97
78225;BMP280;67498;53.650;10.090;2024-03-08T12:02:23;101843.59;;;9.89
78225;BMP280;67498;53.650;10.090;2024-03-08T12:04:58;101845.09;;;9.94
78225;BMP280;67498;53.650;10.090;2024-03-08T12:07:31;101832.41;;;9.89
78225;BMP280;67498;53.650;10.090;2024-03-08T12:10:16;101837.22;;;9.87
78225;BMP280;67498;53.650;10.090;2024-03-08T12:12:46;101832.47;;;9.96
78225;BMP280;67498;53.650;10.090;2024-03-08T12:15:12;101828.84;;;10.11
78225;BMP280;67498;53.650;10.090;2024-03-08T12:17:39;101824.50;;;10.26
78225;BMP280;67498;53.650;10.090;2024-03-08T12:20:21;101809.22;;;10.35
78225;BMP280;67498;53.650;10.090;2024-03-08T12:22:47;101806.69;;;10.42
78225;BMP280;67498;53.650;10.090;2024-03-08T12:25:12;101804.50;;;10.48
78225;BMP280;67498;53.650;10.090;2024-03-08T12:27:39;101798.91;;;10.53
78225;BMP280;67498;53.650;10.090;2024-03-08T12:30:22;101797.81;;;10.58
78225;BMP280;67498;53.650;10.090;2024-03-08T12:32:53;101797.13;;;10.68
78225;BMP280;67498;53.650;10.090;2024-03-08T12:35:20;101797.50;;;10.70
78225;BMP280;67498;53.650;10.090;2024-03-08T12:37:50;101792.22;;;10.55
78225;BMP280;67498;53.650;10.090;2024-03-08T12:40:17;101787.38;;;10.58
78225;BMP280;67498;53.650;10.090;2024-03-08T12:42:45;101776.59;;;10.66
78225;BMP280;67498;53.650;10.090;2024-03-08T12:45:13;101772.16;;;10.74
78225;BMP280;67498;53.650;10.090;2024-03-08T12:47:39;101772.91;;;10.74
78225;BMP280;67498;53.650;10.090;2024-03-08T12:50:07;101762.41;;;10.71
78225;BMP280;67498;53.650;10.090;2024-03-08T12:52:33;101754.63;;;10.74
78225;BMP280;67498;53.650;10.090;2024-03-08T12:54:59;101758.31;;;10.70
78225;BMP280;67498;53.650;10.090;2024-03-08T12:57:28;101745.59;;;10.58
78225;BMP280;67498;53.650;10.090;2024-03-08T12:59:54;101748.94;;;10.62
78225;BMP280;67498;53.650;10.090;2024-03-08T13:02:19;101738.16;;;10.60
78225;BMP280;67498;53.650;10.090;2024-03-08T13:04:46;101737.41;;;10.63
78225;BMP280;67498;53.650;10.090;2024-03-08T13:07:12;101742.63;;;10.63
78225;BMP280;67498;53.650;10.090;2024-03-08T13:09:41;101738.16;;;10.63
78225;BMP280;67498;53.650;10.090;2024-03-08T13:12:07;101731.41;;;10.59
78225;BMP280;67498;53.650;10.090;2024-03-08T13:14:33;101728.81;;;10.62
78225;BMP280;67498;53.650;10.090;2024-03-08T13:17:00;101722.50;;;10.67
78225;BMP280;67498;53.650;10.090;2024-03-08T13:19:25;101725.50;;;10.72
78225;BMP280;67498;53.650;10.090;2024-03-08T13:21:53;101725.13;;;10.67
78225;BMP280;67498;53.650;10.090;2024-03-08T13:24:18;101720.22;;;10.58
78225;BMP280;67498;53.650;10.090;2024-03-08T13:26:44;101715.72;;;10.51
78225;BMP280;67498;53.650;10.090;2024-03-08T13:29:10;101711.66;;;10.58
78225;BMP280;67498;53.650;10.090;2024-03-08T13:31:35;101704.53;;;10.54
78225;BMP280;67498;53.650;10.090;2024-03-08T13:34:01;101706.41;;;10.61
78225;BMP280;67498;53.650;10.090;2024-03-08T13:36:26;101689.25;;;10.64
78225;BMP280;67498;53.650;10.090;2024-03-08T13:39:00;101690.06;;;10.71
78225;BMP280;67498;53.650;10.090;2024-03-08T13:41:25;101694.53;;;10.74
78225;BMP280;67498;53.650;10.090;2024-03-08T13:43:51;101681.84;;;10.73
78225;BMP280;67498;53.650;10.090;2024-03-08T13:46:17;101679.97;;;10.70
78225;BMP280;67498;53.650;10.090;2024-03-08T13:48:42;101674.41;;;10.78
78225;BMP280;67498;53.650;10.090;2024-03-08T13:51:08;101664.34;;;10.84
78225;BMP280;67498;53.650;10.090;2024-03-08T13:53:40;101658.72;;;10.86